Olekminsk, Russia
Current Conditions -  °F | °C
As of 12:00 PM on Thursday 23 Oct 2014 (Local Time) from UEEE Reporting Station
Broken Clouds Broken Clouds  
Wind Chill:   Ceiling: 20000
Heat Index:   Visibility: 6mi
Dew Point: -2°   Wind: 0mph
Humidity: 92%   Direction: NA
Pressure: 29.53"   Gusts: NA
Location:  60.37°N, 120.42°E
Report Text: UEEE 230300Z 00000MPS 9999 FEW003 BKN200 M18/M19 Q1000 NOSIGRMK QFE741 23490150
Loading
Personal Weather Stations






























Interactive Weather Map
Tropical Storm Tracking
New forecast layout! Learn more

10-Day Weather Forecast

Advertisements
Track Severe Weather on mobile